createdAt,value
2019-03-02T00:00:10.576Z,20.46
2019-03-02T00:01:13.434Z,20.40
2019-03-02T00:02:10.733Z,20.53
2019-03-02T00:03:10.751Z,20.40
2019-03-02T00:04:11.095Z,20.37
2019-03-02T00:05:10.662Z,20.42
2019-03-02T00:06:10.834Z,20.40
2019-03-02T00:07:11.286Z,20.37
2019-03-02T00:08:10.810Z,20.40
2019-03-02T00:09:10.835Z,20.48
2019-03-02T00:10:10.948Z,20.44
2019-03-02T00:11:10.781Z,20.44
2019-03-02T00:12:10.919Z,20.40
2019-03-02T00:13:10.890Z,20.44
2019-03-02T00:14:10.780Z,20.32
2019-03-02T00:15:10.814Z,20.44
2019-03-02T00:16:10.931Z,20.34
2019-03-02T00:17:11.049Z,20.42
2019-03-02T00:18:10.831Z,20.42
2019-03-02T00:19:10.854Z,20.37
2019-03-02T00:20:10.885Z,20.37
2019-03-02T00:21:10.876Z,20.40
2019-03-02T00:22:11.121Z,20.40
2019-03-02T00:23:11.039Z,20.42
2019-03-02T00:24:11.050Z,20.40
2019-03-02T00:25:10.945Z,20.37
2019-03-02T00:26:11.446Z,20.48
2019-03-02T00:27:11.097Z,20.37
2019-03-02T00:28:11.097Z,20.49
2019-03-02T00:29:11.875Z,20.39
2019-03-02T00:30:11.141Z,20.53
2019-03-02T00:31:11.069Z,20.46
2019-03-02T00:32:11.260Z,20.48
2019-03-02T00:33:11.565Z,20.49
2019-03-02T00:34:11.196Z,20.50
2019-03-02T00:35:11.217Z,20.53
2019-03-02T00:36:11.214Z,20.48
2019-03-02T00:37:11.208Z,20.40
2019-03-02T00:38:11.256Z,20.53
2019-03-02T00:39:11.268Z,20.50
2019-03-02T00:40:11.285Z,20.55
2019-03-02T00:41:11.166Z,20.58
2019-03-02T00:42:13.573Z,20.66
2019-03-02T00:43:11.319Z,20.60
2019-03-02T00:44:11.336Z,20.67
2019-03-02T00:45:14.207Z,20.64
2019-03-02T00:46:11.247Z,20.74
2019-03-02T00:47:11.476Z,20.73
2019-03-02T00:48:12.391Z,20.68
2019-03-02T00:49:11.411Z,20.73
2019-03-02T00:50:11.423Z,20.64
2019-03-02T00:51:12.082Z,20.63
2019-03-02T00:52:11.456Z,20.64
2019-03-02T00:53:11.519Z,20.75
2019-03-02T00:54:11.681Z,20.71
2019-03-02T00:55:11.491Z,20.78
2019-03-02T00:56:11.514Z,20.80
2019-03-02T00:57:14.744Z,20.77
2019-03-02T00:58:11.564Z,20.75
2019-03-02T00:59:11.574Z,20.77
2019-03-02T01:00:11.686Z,20.82
2019-03-02T01:01:11.573Z,20.80
2019-03-02T01:02:11.481Z,20.68
2019-03-02T01:03:12.000Z,20.73
2019-03-02T01:04:11.631Z,20.73
2019-03-02T01:05:11.645Z,20.67
2019-03-02T01:06:12.609Z,20.63
2019-03-02T01:07:11.549Z,20.75
2019-03-02T01:08:11.719Z,20.71
2019-03-02T01:09:12.863Z,20.70
2019-03-02T01:10:11.589Z,20.63
2019-03-02T01:11:11.606Z,20.64
2019-03-02T01:12:11.747Z,20.59
2019-03-02T01:13:11.850Z,20.70
2019-03-02T01:14:11.768Z,20.73
2019-03-02T01:15:11.664Z,20.75
2019-03-02T01:16:11.688Z,20.58
2019-03-02T01:17:11.819Z,20.63
2019-03-02T01:18:11.809Z,20.77
2019-03-02T01:19:14.628Z,20.70
2019-03-02T01:20:11.750Z,20.60
2019-03-02T01:21:11.880Z,20.75
2019-03-02T01:22:13.559Z,20.80
2019-03-02T01:23:11.892Z,20.68
2019-03-02T01:24:11.795Z,20.74
2019-03-02T01:25:13.344Z,20.71
2019-03-02T01:26:11.952Z,20.71
2019-03-02T01:27:11.951Z,20.68
2019-03-02T01:28:11.976Z,20.70
2019-03-02T01:29:11.996Z,20.71
2019-03-02T01:30:11.865Z,20.67
2019-03-02T01:31:11.889Z,20.68
2019-03-02T01:32:12.685Z,20.68
2019-03-02T01:33:12.015Z,20.63
2019-03-02T01:34:12.057Z,20.67
2019-03-02T01:35:11.948Z,20.68
2019-03-02T01:36:11.974Z,20.63
2019-03-02T01:37:12.108Z,20.71
2019-03-02T01:38:12.262Z,20.60
2019-03-02T01:39:12.008Z,20.59
2019-03-02T01:40:12.021Z,20.66
2019-03-02T01:41:14.076Z,20.60
2019-03-02T01:42:12.170Z,20.63
2019-03-02T01:43:12.248Z,20.64
2019-03-02T01:44:12.635Z,20.74
2019-03-02T01:45:12.265Z,20.77
2019-03-02T01:46:12.238Z,20.64
2019-03-02T01:47:12.625Z,20.66
2019-03-02T01:48:12.136Z,20.73
2019-03-02T01:49:12.145Z,20.66
2019-03-02T01:50:12.746Z,20.58
2019-03-02T01:51:12.180Z,20.60
2019-03-02T01:52:12.194Z,20.70
2019-03-02T01:53:12.352Z,20.60
2019-03-02T01:54:12.357Z,20.67
2019-03-02T01:55:12.460Z,20.75
2019-03-02T01:56:12.377Z,20.68
2019-03-02T01:57:13.749Z,20.75
2019-03-02T01:58:12.292Z,20.66
2019-03-02T01:59:12.313Z,20.60
2019-03-02T02:01:12.328Z,20.66
2019-03-02T02:02:12.348Z,20.68
2019-03-02T02:03:13.021Z,20.70
2019-03-02T02:04:12.500Z,20.74
2019-03-02T02:05:12.607Z,20.68
2019-03-02T02:06:12.392Z,20.71
2019-03-02T02:07:14.449Z,20.68
2019-03-02T02:08:12.555Z,20.64
2019-03-02T02:09:12.441Z,20.68
2019-03-02T02:10:12.725Z,20.73
2019-03-02T02:11:14.607Z,20.73
2019-03-02T02:12:12.600Z,20.71
2019-03-02T02:13:12.511Z,20.70
2019-03-02T02:14:14.935Z,20.73
2019-03-02T02:15:12.695Z,20.73
2019-03-02T02:16:12.660Z,20.74
2019-03-02T02:17:14.423Z,20.68
2019-03-02T02:18:12.701Z,20.68
2019-03-02T02:19:12.583Z,20.66
2019-03-02T02:20:14.529Z,20.67
2019-03-02T02:21:12.616Z,20.66
2019-03-02T02:22:12.613Z,20.63
2019-03-02T02:23:13.290Z,20.66
2019-03-02T02:24:12.778Z,20.64
2019-03-02T02:25:12.851Z,20.49
2019-03-02T02:26:12.685Z,20.63
2019-03-02T02:27:12.920Z,20.60
2019-03-02T02:28:12.843Z,20.56
2019-03-02T02:29:12.743Z,20.58
2019-03-02T02:30:12.858Z,20.59
2019-03-02T02:31:12.876Z,20.63
2019-03-02T02:32:13.001Z,20.66
2019-03-02T02:33:12.785Z,20.64
2019-03-02T02:34:21.680Z,20.66
2019-03-02T02:35:12.944Z,20.64
2019-03-02T02:36:14.143Z,20.66
2019-03-02T02:37:13.080Z,20.64
2019-03-02T02:38:15.964Z,20.66
2019-03-02T02:39:12.999Z,20.56
2019-03-02T02:40:13.844Z,20.59
2019-03-02T02:41:21.972Z,20.59
2019-03-02T02:42:13.015Z,20.71
2019-03-02T02:43:20.476Z,20.71
2019-03-02T02:44:12.956Z,20.70
2019-03-02T02:45:15.148Z,20.80
2019-03-02T02:46:12.984Z,20.67
2019-03-02T02:47:14.030Z,20.70
2019-03-02T02:48:13.200Z,20.71
2019-03-02T02:49:13.146Z,20.66
2019-03-02T02:50:13.032Z,20.71
2019-03-02T02:51:13.163Z,20.67
2019-03-02T02:52:13.047Z,20.77
2019-03-02T02:53:13.254Z,20.78
2019-03-02T02:54:13.098Z,20.86
2019-03-02T02:55:13.233Z,20.85
2019-03-02T02:56:58.786Z,20.89
2019-03-02T02:57:13.270Z,20.96
